Emporium, Pennsylvania
Current Conditions -  °F | °C
As of 3:33 PM on Monday 26 Jan 2015 (Local Time) from KBFD Reporting Station
Light Snow Light Snow  
Wind Chill: -12°   Ceiling: 2400
Heat Index: -7°   Visibility: 5mi
Dew Point: -10°   Wind: 8mph
Humidity: 78%   Direction: 120°ESE
Pressure: 29.69"   Gusts: NA
Location:  41.51°N, 78.24°W
Report Text: KBFD 262033Z AUTO 12007KT 5SM -SN FEW012 OVC024 M07/M10 A2969 RMK AO2 P0000 T10671100
Loading
Personal Weather Stations






























Interactive Weather Map New forecast layout! Learn more

10-Day Weather Forecast

Advertisements
Track Severe Weather on mobile